Westchester, California
Current Conditions -  °F | °C
As of 5:53 PM on Thursday 20 Nov 2014 (Local Time) from KLAX Reporting Station
Overcast Overcast  
Wind Chill: 63°   Ceiling: 15000
Heat Index: 63°   Visibility: 10mi
Dew Point: 57°   Wind: 9mph
Humidity: 81%   Direction: 240°WSW
Pressure: 30"   Gusts: NA
Location:  33.9534°N, 118.399°W
Report Text: KLAX 210153Z 24008KT 10SM FEW035 OVC150 17/14 A3000 RMK AO2 SLP157 T01720139 $
Loading
Personal Weather Stations






























Interactive Weather Map New forecast layout! Learn more

10-Day Weather Forecast

Advertisements
Track Severe Weather on mobile